Time;durP1;ratioP1;P1;durP2;ratioP2;P2;SDS_P1;SDS_P2;PMS_P1;PMS_P2;Temp;Humidity;BMP_temperature;BMP_pressure;BME280_temperature;BME280_humidity;BME280_pressure;Samples;Min_cycle;Max_cycle;Signal;HPM_P1;HPM_P2
2024/01/09 00:00:07;;;;;;;1.80;1.63;;;13.90;46.20;;;;;;4204982;28;20490;-37
2024/01/09 00:02:48;;;;;;;2.63;1.88;;;13.80;47.20;;;;;;4204684;28;20059;-37
2024/01/09 00:05:29;;;;;;;3.08;2.30;;;13.80;47.60;;;;;;4204591;28;20391;-36
2024/01/09 00:08:10;;;;;;;2.50;2.30;;;13.80;47.10;;;;;;4204940;28;20062;-36
2024/01/09 00:10:51;;;;;;;2.90;1.92;;;13.70;47.20;;;;;;4205094;27;20051;-37
2024/01/09 00:13:32;;;;;;;3.10;2.65;;;13.70;49.00;;;;;;4204867;27;20083;-36
2024/01/09 00:16:15;;;;;;;2.58;2.20;;;13.80;49.20;;;;;;4204309;27;20559;-36
2024/01/09 00:18:55;;;;;;;2.67;2.25;;;13.80;47.90;;;;;;4215216;27;20074;-37
2024/01/09 00:21:36;;;;;;;2.45;2.25;;;13.80;48.00;;;;;;4217930;27;20133;-36
2024/01/09 00:24:18;;;;;;;2.60;2.40;;;13.80;49.30;;;;;;4204519;28;20113;-36
2024/01/09 00:26:59;;;;;;;1.98;1.50;;;13.90;50.00;;;;;;4204448;28;20047;-36
2024/01/09 00:29:40;;;;;;;3.38;2.25;;;13.90;49.30;;;;;;4204810;28;20188;-36
2024/01/09 00:32:22;;;;;;;2.30;1.92;;;14.00;49.30;;;;;;4204539;28;20078;-36
2024/01/09 00:35:04;;;;;;;3.53;2.45;;;14.00;49.90;;;;;;4219031;27;20193;-36
2024/01/09 00:37:44;;;;;;;2.10;1.90;;;14.20;49.20;;;;;;4219088;27;20054;-36
2024/01/09 00:40:25;;;;;;;2.22;2.03;;;14.30;48.40;;;;;;4193709;27;20177;-36
2024/01/09 00:43:06;;;;;;;4.23;2.00;;;14.40;48.70;;;;;;4204904;27;20490;-36
2024/01/09 00:45:47;;;;;;;2.70;2.10;;;14.40;49.30;;;;;;4208267;27;20066;-36
2024/01/09 00:48:29;;;;;;;2.33;1.80;;;14.50;49.50;;;;;;4220888;27;20426;-36
2024/01/09 00:51:11;;;;;;;3.60;2.20;;;14.60;48.50;;;;;;4203600;27;20374;-36
2024/01/09 00:53:54;;;;;;;2.13;2.03;;;14.70;48.40;;;;;;4201540;27;20521;-36
2024/01/09 00:56:35;;;;;;;2.50;1.98;;;14.80;48.90;;;;;;4221363;27;20062;-36
2024/01/09 00:59:16;;;;;;;2.05;1.95;;;14.80;47.70;;;;;;4203968;27;20559;-36
2024/01/09 01:01:57;;;;;;;3.92;2.22;;;14.80;48.10;;;;;;4204115;27;20051;-37
2024/01/09 01:04:40;;;;;;;2.00;1.90;;;14.80;46.90;;;;;;4204707;28;20051;-36
2024/01/09 01:07:21;;;;;;;4.10;2.30;;;14.80;46.70;;;;;;4204487;28;20047;-37
2024/01/09 01:10:02;;;;;;;2.63;1.90;;;14.70;47.50;;;;;;4215286;27;20047;-36
2024/01/09 01:12:43;;;;;;;2.67;1.70;;;14.70;45.80;;;;;;4204029;28;20055;-36
2024/01/09 01:15:24;;;;;;;2.07;1.70;;;14.70;46.30;;;;;;4204229;28;20055;-37
2024/01/09 01:18:05;;;;;;;2.25;2.10;;;14.70;47.40;;;;;;4203383;28;20185;-36
2024/01/09 01:20:48;;;;;;;2.53;2.33;;;14.70;46.30;;;;;;4203919;28;20158;-36
2024/01/09 01:23:29;;;;;;;5.47;1.90;;;14.80;45.80;;;;;;4203913;28;20063;-36
2024/01/09 01:26:10;;;;;;;2.45;2.33;;;14.70;47.40;;;;;;4202275;27;20509;-37
2024/01/09 01:28:51;;;;;;;2.42;2.03;;;14.70;48.00;;;;;;4220421;27;20409;-37
2024/01/09 01:31:32;;;;;;;3.20;2.50;;;14.70;46.40;;;;;;4220507;27;20143;-37
2024/01/09 01:34:13;;;;;;;1.95;1.83;;;14.80;45.70;;;;;;4201348;28;20108;-37
2024/01/09 01:36:55;;;;;;;2.55;2.35;;;14.80;46.50;;;;;;4205216;27;20055;-36
2024/01/09 01:39:37;;;;;;;2.22;1.30;;;14.80;46.20;;;;;;4220524;27;20059;-36
2024/01/09 01:42:17;;;;;;;;;;;14.80;45.80;;;;;;4221099;27;20087;-36
2024/01/09 01:44:59;;;;;;;3.10;1.80;;;14.80;46.30;;;;;;4220301;27;19927;-36
2024/01/09 01:47:40;;;;;;;2.45;2.03;;;14.80;47.20;;;;;;4203342;28;20395;-36
2024/01/09 01:50:21;;;;;;;2.83;2.30;;;14.80;45.70;;;;;;4203687;28;20472;-36
2024/01/09 01:53:06;;;;;;;2.03;1.83;;;14.80;45.50;;;;;;4203665;28;20055;-36
2024/01/09 01:55:47;;;;;;;2.20;1.92;;;14.70;47.10;;;;;;4202753;28;20165;-37
2024/01/09 01:58:32;;;;;;;2.50;2.28;;;14.70;46.40;;;;;;4203865;28;20050;-35
2024/01/09 02:01:13;;;;;;;3.03;1.70;;;14.60;47.30;;;;;;4203294;28;20055;-36
2024/01/09 02:03:54;;;;;;;2.10;2.00;;;14.60;47.30;;;;;;4202770;28;20059;-36
2024/01/09 02:06:35;;;;;;;2.42;2.20;;;14.50;47.80;;;;;;4205571;28;20501;-36
2024/01/09 02:09:19;;;;;;;1.95;1.58;;;14.50;47.60;;;;;;4223271;27;20183;-36
2024/01/09 02:12:00;;;;;;;2.33;2.13;;;14.50;46.90;;;;;;4189730;28;20051;-36
2024/01/09 02:14:41;;;;;;;2.30;1.95;;;14.50;46.00;;;;;;4190374;28;20055;-36
2024/01/09 02:17:22;;;;;;;2.78;1.88;;;14.60;48.40;;;;;;4206622;28;20055;-36
2024/01/09 02:20:07;;;;;;;2.17;1.98;;;14.70;48.80;;;;;;4206194;28;20050;-36
2024/01/09 02:22:48;;;;;;;2.88;1.90;;;14.80;47.20;;;;;;4206125;28;20067;-36
2024/01/09 02:25:30;;;;;;;2.95;2.25;;;14.80;48.10;;;;;;4189779;28;20079;-36
2024/01/09 02:28:17;;;;;;;2.20;2.00;;;14.90;48.90;;;;;;4189931;28;20059;-36
2024/01/09 02:31:00;;;;;;;1.90;1.80;;;14.90;47.40;;;;;;4189591;28;20060;-36
2024/01/09 02:33:41;;;;;;;2.97;1.90;;;14.90;48.60;;;;;;4189884;28;20622;-37
2024/01/09 02:36:22;;;;;;;3.33;1.85;;;14.90;48.40;;;;;;4210705;27;20080;-36
2024/01/09 02:39:03;;;;;;;2.90;2.20;;;14.90;46.70;;;;;;4206500;28;20206;-36
2024/01/09 02:41:45;;;;;;;5.63;2.88;;;14.90;48.40;;;;;;4206246;27;20050;-36
2024/01/09 02:44:26;;;;;;;3.58;1.92;;;15.00;48.40;;;;;;4211830;27;20076;-36
2024/01/09 02:47:09;;;;;;;2.10;1.90;;;15.00;48.30;;;;;;4205982;28;20050;-36
2024/01/09 02:49:50;;;;;;;1.70;1.60;;;15.00;46.20;;;;;;4206848;28;20063;-36
2024/01/09 02:52:30;;;;;;;3.63;2.08;;;15.00;49.20;;;;;;4206662;28;20417;-35
2024/01/09 02:55:11;;;;;;;3.00;1.67;;;15.10;48.80;;;;;;4205788;28;20498;-35
2024/01/09 02:57:52;;;;;;;3.45;2.25;;;15.20;48.40;;;;;;4205468;28;20375;-35
2024/01/09 03:00:34;;;;;;;2.00;1.90;;;15.20;48.50;;;;;;4207181;27;20399;-35
2024/01/09 03:03:16;;;;;;;1.75;1.65;;;15.20;49.50;;;;;;4205727;28;20067;-35
2024/01/09 03:05:57;;;;;;;3.40;1.98;;;15.20;48.10;;;;;;4206466;28;20088;-35
2024/01/09 03:08:38;;;;;;;2.50;2.30;;;15.20;48.90;;;;;;4222668;27;20058;-35
2024/01/09 03:11:19;;;;;;;1.90;1.80;;;15.10;47.60;;;;;;4222123;27;20046;-35
2024/01/09 03:14:01;;;;;;;2.25;2.05;;;15.10;48.70;;;;;;4221995;27;20050;-35
2024/01/09 03:16:42;;;;;;;2.45;1.95;;;15.10;48.50;;;;;;4233732;27;20062;-35
2024/01/09 03:19:24;;;;;;;3.20;2.65;;;15.10;48.90;;;;;;4237948;27;20054;-35
2024/01/09 03:22:05;;;;;;;2.30;2.10;;;15.10;49.30;;;;;;4237218;27;20050;-36
2024/01/09 03:24:46;;;;;;;2.40;2.20;;;15.00;48.30;;;;;;4205686;27;20728;-36
2024/01/09 03:27:27;;;;;;;3.10;2.23;;;15.10;49.40;;;;;;4206007;28;20094;-35
2024/01/09 03:30:09;;;;;;;2.88;2.10;;;15.10;47.70;;;;;;4191897;27;20387;-36
2024/01/09 03:32:50;;;;;;;2.17;1.98;;;15.10;47.60;;;;;;4205952;28;20129;-36
2024/01/09 03:35:32;;;;;;;3.38;2.15;;;15.10;48.20;;;;;;4211830;27;20055;-36
2024/01/09 03:38:14;;;;;;;3.15;1.92;;;15.10;48.90;;;;;;4212082;27;20051;-36
2024/01/09 03:40:55;;;;;;;2.80;2.40;;;15.00;48.60;;;;;;4222170;27;20512;-36
2024/01/09 03:43:36;;;;;;;2.83;2.28;;;14.90;48.10;;;;;;4222325;27;20067;-36
2024/01/09 03:46:17;;;;;;;2.17;2.03;;;14.80;48.40;;;;;;4221803;27;20084;-36
2024/01/09 03:48:58;;;;;;;2.00;1.88;;;14.70;49.30;;;;;;4221947;27;20171;-36
2024/01/09 03:51:41;;;;;;;2.30;2.10;;;14.80;47.90;;;;;;4205396;28;20047;-36
2024/01/09 03:54:22;;;;;;;2.20;2.10;;;14.80;48.60;;;;;;4188848;28;20085;-36
2024/01/09 03:57:03;;;;;;;2.35;2.15;;;15.00;47.70;;;;;;4205516;28;20104;-36
2024/01/09 03:59:44;;;;;;;2.58;2.40;;;15.00;47.80;;;;;;4207912;27;20059;-36
2024/01/09 04:02:25;;;;;;;4.35;1.92;;;15.10;48.80;;;;;;4220434;27;20050;-36
2024/01/09 04:05:07;;;;;;;3.05;2.20;;;15.10;49.10;;;;;;4221258;27;20096;-35
2024/01/09 04:07:49;;;;;;;2.03;1.92;;;15.10;48.10;;;;;;4205332;28;20055;-35
2024/01/09 04:10:31;;;;;;;2.70;2.50;;;15.10;47.40;;;;;;4204597;28;20059;-35
2024/01/09 04:13:11;;;;;;;2.42;2.05;;;15.10;45.20;;;;;;4218818;27;20489;-35
2024/01/09 04:15:53;;;;;;;2.20;2.10;;;15.00;48.10;;;;;;4204826;28;20072;-36
2024/01/09 04:18:34;;;;;;;2.20;2.08;;;15.00;48.10;;;;;;4187780;28;20400;-35
2024/01/09 04:21:15;;;;;;;2.38;2.17;;;14.90;48.20;;;;;;4188140;28;20063;-35
2024/01/09 04:23:57;;;;;;;2.78;2.25;;;14.80;46.90;;;;;;4219690;27;20059;-35
2024/01/09 04:26:38;;;;;;;3.67;2.67;;;14.70;47.60;;;;;;4212365;27;20877;-35
2024/01/09 04:29:21;;;;;;;2.20;2.05;;;14.50;48.20;;;;;;4204837;28;20074;-36
2024/01/09 04:32:02;;;;;;;2.55;2.35;;;14.40;48.00;;;;;;4205272;28;20051;-36
2024/01/09 04:34:43;;;;;;;2.20;2.10;;;14.30;49.70;;;;;;4210821;27;20058;-36
2024/01/09 04:37:24;;;;;;;;;;;14.30;49.50;;;;;;4203806;28;20510;-36
2024/01/09 04:40:08;;;;;;;2.70;2.50;;;14.40;47.60;;;;;;4204102;28;19950;-44
2024/01/09 04:42:49;;;;;;;2.38;1.95;;;14.50;47.90;;;;;;4203758;28;20101;-45
2024/01/09 04:45:30;;;;;;;2.00;1.48;;;14.60;48.80;;;;;;4204159;28;20418;-45
2024/01/09 04:48:11;;;;;;;3.93;2.70;;;14.70;49.20;;;;;;4214384;27;20064;-46
2024/01/09 04:50:52;;;;;;;2.20;2.00;;;14.90;49.60;;;;;;4204766;28;20055;-48
2024/01/09 04:53:34;;;;;;;2.97;2.53;;;15.00;47.80;;;;;;4204597;27;20051;-43
2024/01/09 04:56:17;;;;;;;3.20;2.00;;;15.10;48.40;;;;;;4204155;28;20108;-44
2024/01/09 04:58:58;;;;;;;2.55;2.15;;;15.20;47.10;;;;;;4204180;27;20117;-43
2024/01/09 05:01:39;;;;;;;3.05;2.60;;;15.30;47.10;;;;;;4187663;28;20055;-44
2024/01/09 05:04:20;;;;;;;2.20;2.00;;;15.40;46.80;;;;;;4189342;27;20075;-45
2024/01/09 05:07:01;;;;;;;2.38;2.17;;;15.50;45.60;;;;;;4198581;27;20293;-43
2024/01/09 05:09:42;;;;;;;5.13;2.40;;;15.50;47.10;;;;;;4191977;27;20056;-45
2024/01/09 05:12:24;;;;;;;2.78;2.58;;;15.50;46.70;;;;;;4192950;28;20051;-43
2024/01/09 05:15:06;;;;;;;2.33;2.00;;;15.50;47.30;;;;;;4204082;28;20495;-43
2024/01/09 05:17:47;;;;;;;2.88;2.67;;;15.50;45.60;;;;;;4203806;28;20129;-45
2024/01/09 05:20:28;;;;;;;3.50;2.50;;;15.40;46.00;;;;;;4203981;28;20454;-46
2024/01/09 05:23:09;;;;;;;2.30;2.10;;;15.40;47.10;;;;;;4204320;28;20051;-44
2024/01/09 05:25:51;;;;;;;3.25;2.58;;;15.50;46.00;;;;;;4203940;28;20058;-45
2024/01/09 05:28:33;;;;;;;2.65;2.45;;;15.50;46.30;;;;;;4203840;28;20059;-45
2024/01/09 05:31:14;;;;;;;2.72;2.45;;;15.50;46.20;;;;;;4202967;28;20383;-44
2024/01/09 05:33:55;;;;;;;2.78;2.33;;;15.50;44.80;;;;;;4186535;28;20059;-44
2024/01/09 05:36:36;;;;;;;3.50;2.97;;;15.40;46.40;;;;;;4186942;28;20408;-45
2024/01/09 05:39:17;;;;;;;2.27;2.00;;;15.40;44.60;;;;;;4186905;28;20059;-44
2024/01/09 05:41:58;;;;;;;2.38;2.05;;;15.30;44.30;;;;;;4186216;28;20072;-44
2024/01/09 05:44:40;;;;;;;2.65;2.42;;;15.30;46.70;;;;;;4186104;28;20063;-43
2024/01/09 05:47:21;;;;;;;2.80;2.60;;;15.20;45.50;;;;;;4186438;28;20610;-49
2024/01/09 05:50:02;;;;;;;2.55;2.35;;;15.10;46.70;;;;;;4186977;28;20136;-46
2024/01/09 05:52:43;;;;;;;2.60;2.40;;;15.00;46.50;;;;;;4186635;28;20206;-47
2024/01/09 05:55:24;;;;;;;5.03;2.67;;;15.10;47.20;;;;;;4187066;28;20043;-46
2024/01/09 05:58:05;;;;;;;3.55;2.30;;;15.10;46.30;;;;;;4186641;28;20048;-45
2024/01/09 06:00:48;;;;;;;2.95;2.75;;;15.20;46.60;;;;;;4203524;28;20051;-44
2024/01/09 06:03:29;;;;;;;3.30;3.00;;;15.20;46.20;;;;;;4202618;28;20051;-45
2024/01/09 06:06:09;;;;;;;2.90;2.70;;;15.30;43.30;;;;;;4203530;28;20132;-46
2024/01/09 06:08:50;;;;;;;3.38;2.55;;;15.30;43.20;;;;;;4210950;27;20054;-35
2024/01/09 06:11:31;;;;;;;3.22;2.88;;;15.30;45.30;;;;;;4220082;27;20058;-35
2024/01/09 06:14:12;;;;;;;2.70;2.50;;;15.30;44.70;;;;;;4220396;27;20050;-35
2024/01/09 06:16:55;;;;;;;2.58;2.35;;;15.20;43.40;;;;;;4220229;27;20055;-36
2024/01/09 06:19:36;;;;;;;2.47;2.08;;;15.10;44.90;;;;;;4203731;27;20609;-36
2024/01/09 06:22:17;;;;;;;3.28;2.90;;;14.90;45.60;;;;;;4203551;27;20121;-36
2024/01/09 06:24:58;;;;;;;2.97;2.67;;;14.80;47.20;;;;;;4204148;28;20447;-35
2024/01/09 06:27:39;;;;;;;2.85;2.40;;;14.80;47.40;;;;;;4202827;28;20055;-35
2024/01/09 06:30:20;;;;;;;3.00;2.72;;;14.90;44.10;;;;;;4203425;28;20054;-35
2024/01/09 06:33:03;;;;;;;4.47;2.85;;;15.00;43.30;;;;;;4203034;28;20054;-36
2024/01/09 06:35:44;;;;;;;3.38;2.60;;;15.00;44.90;;;;;;4186071;28;20380;-35
2024/01/09 06:38:26;;;;;;;1.92;1.83;;;15.10;45.70;;;;;;4203288;28;20490;-35
2024/01/09 06:41:07;;;;;;;4.25;2.55;;;15.10;45.40;;;;;;4203178;28;20047;-36
2024/01/09 06:43:48;;;;;;;2.33;2.13;;;15.10;45.80;;;;;;4186477;28;20869;-35
2024/01/09 06:46:29;;;;;;;3.73;3.10;;;15.20;44.80;;;;;;4186475;28;20063;-35
2024/01/09 06:49:11;;;;;;;3.95;2.63;;;15.10;44.00;;;;;;4185917;28;20294;-36
2024/01/09 06:51:53;;;;;;;3.85;2.72;;;15.10;45.90;;;;;;4186399;28;20075;-36
2024/01/09 06:54:35;;;;;;;3.25;2.45;;;15.10;44.20;;;;;;4189283;28;20494;-36
2024/01/09 06:57:16;;;;;;;;;;;15.10;43.50;;;;;;4189621;28;20507;-36
2024/01/09 06:59:57;;;;;;;2.97;2.60;;;15.10;43.60;;;;;;4188626;28;19974;-36
2024/01/09 07:02:38;;;;;;;3.53;2.85;;;15.00;45.50;;;;;;4203487;27;20101;-35
2024/01/09 07:05:21;;;;;;;2.88;2.60;;;15.10;47.40;;;;;;4206445;28;20066;-37
2024/01/09 07:08:02;;;;;;;3.00;2.75;;;15.20;45.80;;;;;;4206961;28;20043;-36
2024/01/09 07:10:43;;;;;;;3.22;2.92;;;15.30;46.00;;;;;;4212188;27;20073;-36
2024/01/09 07:13:24;;;;;;;3.05;2.72;;;15.30;45.10;;;;;;4222840;27;20534;-35
2024/01/09 07:16:06;;;;;;;3.28;2.97;;;15.40;42.90;;;;;;4189115;28;20055;-35
2024/01/09 07:18:47;;;;;;;4.25;3.60;;;15.40;44.40;;;;;;4194554;28;20517;-35
2024/01/09 07:21:29;;;;;;;3.90;2.72;;;15.50;43.40;;;;;;4222685;27;20054;-35
2024/01/09 07:24:10;;;;;;;3.20;2.90;;;15.60;46.40;;;;;;4222857;27;20062;-35
2024/01/09 07:26:51;;;;;;;3.25;2.97;;;15.60;46.50;;;;;;4204707;27;20055;-35
2024/01/09 07:29:32;;;;;;;3.28;2.80;;;15.60;45.90;;;;;;4202318;27;20071;-36
2024/01/09 07:32:14;;;;;;;5.68;3.50;;;15.60;46.00;;;;;;4188769;28;20052;-35
2024/01/09 07:34:54;;;;;;;3.50;3.20;;;15.60;45.30;;;;;;4214048;27;20509;-36
2024/01/09 07:37:38;;;;;;;3.85;2.92;;;15.70;45.20;;;;;;4222468;27;20088;-35
2024/01/09 07:40:18;;;;;;;3.38;2.75;;;15.70;44.90;;;;;;4222281;27;20087;-35
2024/01/09 07:43:00;;;;;;;3.63;3.10;;;15.60;45.00;;;;;;4208929;27;20059;-35
2024/01/09 07:45:41;;;;;;;3.92;3.60;;;15.70;44.60;;;;;;4205243;28;20055;-35
2024/01/09 07:48:22;;;;;;;4.38;3.35;;;15.70;43.30;;;;;;4205391;28;20055;-43
2024/01/09 07:51:04;;;;;;;3.85;3.00;;;15.60;42.50;;;;;;4204480;28;20055;-35
2024/01/09 07:53:47;;;;;;;5.30;3.47;;;15.50;44.00;;;;;;4204031;28;20059;-35
2024/01/09 07:56:28;;;;;;;3.80;3.10;;;15.30;42.70;;;;;;4205021;28;20071;-36
2024/01/09 07:59:09;;;;;;;3.72;3.38;;;15.20;43.20;;;;;;4205018;28;20059;-36
2024/01/09 08:01:54;;;;;;;3.35;3.15;;;15.10;44.00;;;;;;4204647;28;20050;-35
2024/01/09 08:04:35;;;;;;;3.33;3.03;;;15.00;44.20;;;;;;4220760;27;20124;-36
2024/01/09 08:07:16;;;;;;;3.90;3.20;;;15.00;43.50;;;;;;4220677;27;20067;-47
2024/01/09 08:09:58;;;;;;;4.53;3.75;;;15.10;45.90;;;;;;4203735;28;20055;-46
2024/01/09 08:12:39;;;;;;;4.72;3.47;;;15.10;45.80;;;;;;4205326;28;20129;-45
2024/01/09 08:15:20;;;;;;;3.83;3.53;;;15.20;43.00;;;;;;4212518;27;20081;-46
2024/01/09 08:18:01;;;;;;;4.68;3.50;;;15.20;42.10;;;;;;4205216;28;20117;-47
2024/01/09 08:20:45;;;;;;;3.05;2.70;;;15.30;43.70;;;;;;4223113;27;20054;-45
2024/01/09 08:23:26;;;;;;;4.07;3.67;;;15.30;46.20;;;;;;4213294;27;20167;-47
2024/01/09 08:26:09;;;;;;;3.83;3.30;;;15.40;44.00;;;;;;4221810;27;20055;-48
2024/01/09 08:28:50;;;;;;;4.38;3.00;;;15.50;45.60;;;;;;4230838;27;20058;-49
2024/01/09 08:31:31;;;;;;;4.85;3.30;;;15.50;42.10;;;;;;4221250;27;20050;-48
2024/01/09 08:34:13;;;;;;;4.30;3.40;;;15.50;44.30;;;;;;4198282;28;20494;-47
2024/01/09 08:36:54;;;;;;;3.80;3.42;;;15.60;46.00;;;;;;4218471;27;20144;-44
2024/01/09 08:39:36;;;;;;;5.47;3.58;;;15.70;44.90;;;;;;4204679;28;20087;-49
2024/01/09 08:42:18;;;;;;;3.58;3.28;;;15.80;44.10;;;;;;4208018;27;20046;-47
2024/01/09 08:44:59;;;;;;;3.40;3.10;;;15.80;42.50;;;;;;4219742;27;20685;-47
2024/01/09 08:47:42;;;;;;;3.95;3.58;;;15.80;43.70;;;;;;4206667;27;20058;-44
2024/01/09 08:50:22;;;;;;;4.27;3.73;;;15.80;42.70;;;;;;4200820;27;20059;-47
2024/01/09 08:53:04;;;;;;;3.92;3.53;;;15.80;42.50;;;;;;4197922;27;20066;-48
2024/01/09 08:55:45;;;;;;;4.60;3.40;;;15.80;41.70;;;;;;4220504;27;20051;-45
2024/01/09 08:58:27;;;;;;;4.05;3.38;;;15.70;40.30;;;;;;4204185;28;20065;-47
2024/01/09 09:01:10;;;;;;;3.38;3.17;;;15.60;42.40;;;;;;4206094;27;20070;-45
2024/01/09 09:03:51;;;;;;;5.05;3.63;;;15.50;41.90;;;;;;4220175;27;20177;-47
2024/01/09 09:06:32;;;;;;;4.13;3.58;;;15.40;42.20;;;;;;4206386;27;20051;-45
2024/01/09 09:09:14;;;;;;;3.22;2.92;;;15.20;42.00;;;;;;4204478;28;20055;-44
2024/01/09 09:11:55;;;;;;;5.30;2.75;;;15.00;43.20;;;;;;4204009;28;20148;-44
2024/01/09 09:14:37;;;;;;;3.78;3.47;;;14.80;43.30;;;;;;4187152;28;20051;-45
2024/01/09 09:17:18;;;;;;;3.70;2.92;;;14.70;43.40;;;;;;4205615;28;20722;-45
2024/01/09 09:19:59;;;;;;;3.10;2.80;;;14.60;42.30;;;;;;4220525;27;20725;-44
2024/01/09 09:22:40;;;;;;;4.13;3.40;;;14.60;42.90;;;;;;4220854;27;20051;-47
2024/01/09 09:25:23;;;;;;;3.50;3.20;;;14.70;41.10;;;;;;4217885;27;20123;-45
2024/01/09 09:28:04;;;;;;;3.75;3.35;;;14.70;40.80;;;;;;4220966;27;20055;-44
2024/01/09 09:30:46;;;;;;;3.50;3.25;;;14.70;40.70;;;;;;4220631;27;20133;-44
2024/01/09 09:33:30;;;;;;;3.28;2.97;;;14.80;39.40;;;;;;4219301;27;20043;-45
2024/01/09 09:36:13;;;;;;;3.13;2.88;;;14.80;39.00;;;;;;4217710;27;20081;-44
2024/01/09 09:38:55;;;;;;;3.45;3.15;;;14.90;38.40;;;;;;4203978;28;20052;-48
2024/01/09 09:41:38;;;;;;;3.17;2.80;;;14.90;39.00;;;;;;4213152;27;20390;-47
2024/01/09 09:44:21;;;;;;;3.85;3.00;;;14.90;38.20;;;;;;4200519;28;20517;-44
2024/01/09 09:47:04;;;;;;;3.40;3.10;;;14.90;38.50;;;;;;4219657;27;20414;-45
2024/01/09 09:49:48;;;;;;;3.00;2.78;;;14.90;37.00;;;;;;4203960;28;20050;-47
2024/01/09 09:52:33;;;;;;;3.65;3.35;;;14.90;37.80;;;;;;4203517;28;20074;-46
2024/01/09 09:55:14;;;;;;;3.58;2.60;;;14.90;37.20;;;;;;4215433;27;20078;-44
2024/01/09 09:57:57;;;;;;;;;;;14.80;38.50;;;;;;4204496;27;20189;-49
2024/01/09 10:00:38;;;;;;;3.67;2.80;;;14.80;39.50;;;;;;4217461;27;20000;-45
2024/01/09 10:03:23;;;;;;;3.22;2.92;;;14.80;39.50;;;;;;4219505;27;20080;-49
2024/01/09 10:06:05;;;;;;;3.75;3.17;;;14.80;38.60;;;;;;4203322;28;20494;-47
2024/01/09 10:08:49;;;;;;;3.30;3.00;;;14.90;38.20;;;;;;4206158;28;20055;-46
2024/01/09 10:11:32;;;;;;;3.03;2.83;;;14.90;37.30;;;;;;4203116;28;20051;-46
2024/01/09 10:14:13;;;;;;;3.00;2.80;;;14.90;38.30;;;;;;4206849;27;20063;-48
2024/01/09 10:16:56;;;;;;;5.25;2.88;;;14.90;37.10;;;;;;4203400;28;20693;-46
2024/01/09 10:19:39;;;;;;;3.03;2.80;;;14.80;36.80;;;;;;4212823;27;20454;-48
2024/01/09 10:22:21;;;;;;;2.88;2.67;;;14.80;38.20;;;;;;4220040;27;20188;-37
2024/01/09 10:25:04;;;;;;;3.45;2.78;;;14.80;38.10;;;;;;4202989;28;20055;-37
2024/01/09 10:27:45;;;;;;;2.70;2.47;;;14.90;38.10;;;;;;4205645;28;20055;-37
2024/01/09 10:30:26;;;;;;;3.35;3.05;;;14.90;37.50;;;;;;4206593;28;20104;-37
2024/01/09 10:33:11;;;;;;;2.92;2.60;;;14.90;38.40;;;;;;4205796;28;20055;-37
2024/01/09 10:35:53;;;;;;;3.88;2.60;;;14.90;38.30;;;;;;4206206;28;20071;-36
2024/01/09 10:38:35;;;;;;;3.28;2.53;;;14.90;38.70;;;;;;4206339;28;20055;-37
2024/01/09 10:41:16;;;;;;;3.33;2.90;;;14.90;38.30;;;;;;4206407;28;20051;-37
2024/01/09 10:43:57;;;;;;;;;;;14.90;38.00;;;;;;4206170;28;20055;-37
2024/01/09 10:46:38;;;;;;;2.35;2.25;;;15.00;38.00;;;;;;4189200;28;19991;-35
2024/01/09 10:49:20;;;;;;;2.88;2.67;;;14.90;38.20;;;;;;4222548;27;20062;-38
2024/01/09 10:52:07;;;;;;;2.83;2.60;;;14.80;39.90;;;;;;4209253;27;20058;-46
2024/01/09 10:54:48;;;;;;;3.03;2.70;;;14.70;41.80;;;;;;4239366;27;20057;-47
2024/01/09 10:57:31;;;;;;;3.60;3.00;;;14.60;39.70;;;;;;4221925;27;20047;-47
2024/01/09 11:00:13;;;;;;;2.80;2.33;;;14.50;39.60;;;;;;4222998;27;20051;-49
2024/01/09 11:02:54;;;;;;;2.80;2.60;;;14.30;40.20;;;;;;4207209;27;20062;-47
2024/01/09 11:05:35;;;;;;;2.92;2.72;;;14.20;40.20;;;;;;4223833;27;20062;-48
2024/01/09 11:08:19;;;;;;;3.05;2.85;;;14.20;41.30;;;;;;4237925;27;20054;-46
2024/01/09 11:11:01;;;;;;;2.70;2.50;;;14.20;40.30;;;;;;4239061;27;20046;-45
2024/01/09 11:13:46;;;;;;;2.75;2.55;;;14.20;39.70;;;;;;4228231;27;20055;-50
2024/01/09 11:16:31;;;;;;;3.42;2.38;;;14.30;39.40;;;;;;4219575;27;20065;-49
2024/01/09 11:19:15;;;;;;;2.70;2.50;;;14.40;39.40;;;;;;4213710;27;20046;-48
2024/01/09 11:21:56;;;;;;;2.72;2.50;;;14.40;39.40;;;;;;4222035;27;20059;-46
2024/01/09 11:24:38;;;;;;;2.95;2.38;;;14.40;40.90;;;;;;4222377;27;20197;-48
2024/01/09 11:27:22;;;;;;;2.95;2.30;;;14.50;39.30;;;;;;4219420;27;20279;-47
2024/01/09 11:30:05;;;;;;;4.22;2.70;;;14.50;38.30;;;;;;4222606;27;20898;-50
2024/01/09 11:32:47;;;;;;;2.15;2.03;;;14.50;38.20;;;;;;4221899;27;20454;-37
2024/01/09 11:35:28;;;;;;;3.13;2.83;;;14.50;39.60;;;;;;4220331;27;20043;-38
2024/01/09 11:38:10;;;;;;;3.40;2.30;;;14.50;39.60;;;;;;4221693;27;20446;-38
2024/01/09 11:40:53;;;;;;;2.65;2.55;;;14.50;40.40;;;;;;4209066;28;20547;-36
2024/01/09 11:44:03;;;;;;;2.20;2.10;;;14.50;39.90;;;;;;4208181;27;20055;-37
2024/01/09 11:46:44;;;;;;;2.70;2.45;;;14.60;40.00;;;;;;4186716;28;20051;-37
2024/01/09 11:49:25;;;;;;;3.90;2.65;;;14.60;40.40;;;;;;4188626;28;20090;-37
2024/01/09 11:52:06;;;;;;;2.70;2.50;;;14.60;41.80;;;;;;4188524;28;20391;-37
2024/01/09 11:54:48;;;;;;;3.05;2.85;;;14.60;41.00;;;;;;4204990;27;20585;-37
2024/01/09 11:57:31;;;;;;;2.92;2.72;;;14.50;40.70;;;;;;4206304;27;20476;-37
2024/01/09 12:00:12;;;;;;;3.30;3.10;;;14.50;41.30;;;;;;4205383;27;20782;-38
2024/01/09 12:02:53;;;;;;;3.33;2.63;;;14.50;42.10;;;;;;4205822;27;20059;-36
2024/01/09 12:05:35;;;;;;;3.28;2.63;;;14.60;40.70;;;;;;4206571;27;20075;-38
2024/01/09 12:08:16;;;;;;;3.40;3.10;;;14.60;42.50;;;;;;4205543;28;20055;-36
2024/01/09 12:10:57;;;;;;;3.42;3.10;;;14.70;42.70;;;;;;4203969;28;20047;-36
2024/01/09 12:13:40;;;;;;;5.28;3.40;;;14.80;42.10;;;;;;4205941;27;20046;-36
2024/01/09 12:16:22;;;;;;;3.08;2.88;;;14.80;42.50;;;;;;4220966;27;20055;-38
2024/01/09 12:19:03;;;;;;;2.58;2.47;;;14.80;41.30;;;;;;4215222;27;20063;-37
2024/01/09 12:21:44;;;;;;;2.67;2.47;;;14.80;41.40;;;;;;4204724;28;20104;-37
2024/01/09 12:24:25;;;;;;;3.40;2.73;;;14.80;41.70;;;;;;4208711;27;20058;-37
2024/01/09 12:27:08;;;;;;;3.75;2.25;;;14.80;42.60;;;;;;4219570;27;20053;-36
2024/01/09 12:29:51;;;;;;;3.10;2.80;;;14.80;41.90;;;;;;4221084;27;20064;-37
2024/01/09 12:32:32;;;;;;;4.05;2.92;;;14.80;39.90;;;;;;4204712;28;20051;-37
2024/01/09 12:35:13;;;;;;;3.03;2.83;;;14.70;39.60;;;;;;4204749;28;20062;-37
2024/01/09 12:37:55;;;;;;;3.00;2.67;;;14.60;40.80;;;;;;4203709;28;20519;-37
2024/01/09 12:40:36;;;;;;;4.15;2.90;;;14.60;41.40;;;;;;4204314;28;20498;-37
2024/01/09 12:43:19;;;;;;;3.25;2.13;;;14.50;40.80;;;;;;4206401;27;20055;-34
2024/01/09 12:46:02;;;;;;;2.95;2.58;;;14.40;41.80;;;;;;4219304;27;20713;-35
2024/01/09 12:48:43;;;;;;;3.08;2.47;;;14.30;42.00;;;;;;4210600;27;20177;-35
2024/01/09 12:51:24;;;;;;;2.30;2.13;;;14.20;42.30;;;;;;4205063;27;20181;-37
2024/01/09 12:54:05;;;;;;;2.63;2.42;;;14.10;42.60;;;;;;4204721;27;20458;-37
2024/01/09 12:56:46;;;;;;;30.93;15.77;;;14.10;42.30;;;;;;4207606;27;20049;-37
2024/01/09 12:59:27;;;;;;;6.25;2.88;;;14.00;41.70;;;;;;4219401;27;20284;-37
2024/01/09 13:02:10;;;;;;;3.50;2.65;;;14.00;42.40;;;;;;4220905;27;20050;-37
2024/01/09 13:04:51;;;;;;;3.38;2.65;;;14.00;42.30;;;;;;4215562;27;20062;-37
2024/01/09 13:07:32;;;;;;;3.72;2.63;;;13.90;43.00;;;;;;4204349;28;20473;-37
2024/01/09 13:10:13;;;;;;;2.40;2.30;;;13.80;43.50;;;;;;4203691;28;20482;-35
2024/01/09 13:12:54;;;;;;;2.75;2.08;;;13.70;43.40;;;;;;4203809;28;20112;-35
2024/01/09 13:15:36;;;;;;;3.00;2.80;;;13.70;44.50;;;;;;4215609;27;20055;-35
2024/01/09 13:18:19;;;;;;;2.05;1.90;;;13.60;43.50;;;;;;4213484;27;20062;-35
2024/01/09 13:21:02;;;;;;;3.55;2.42;;;13.60;43.60;;;;;;4213595;28;20534;-35
2024/01/09 13:23:43;;;;;;;2.53;2.33;;;13.60;42.00;;;;;;4203874;28;20100;-35
2024/01/09 13:26:28;;;;;;;2.83;2.63;;;13.70;43.40;;;;;;4201778;27;20067;-35
2024/01/09 13:29:10;;;;;;;2.50;2.03;;;13.70;43.10;;;;;;4203734;27;20181;-35
2024/01/09 13:31:54;;;;;;;3.63;2.88;;;13.70;43.00;;;;;;4203967;28;20063;-35
2024/01/09 13:34:36;;;;;;;2.03;1.90;;;13.70;42.80;;;;;;4204468;28;20178;-35
2024/01/09 13:37:18;;;;;;;2.35;2.20;;;13.80;42.50;;;;;;4203366;27;20116;-35
2024/01/09 13:40:00;;;;;;;2.28;2.08;;;13.80;42.60;;;;;;4207849;27;20066;-35
2024/01/09 13:42:42;;;;;;;2.45;2.25;;;13.70;44.20;;;;;;4203595;28;20502;-36
2024/01/09 13:45:23;;;;;;;2.47;1.98;;;13.70;43.70;;;;;;4195972;27;20124;-35
2024/01/09 13:48:05;;;;;;;2.33;2.15;;;13.60;43.70;;;;;;4219190;27;20049;-35
2024/01/09 13:50:48;;;;;;;2.63;2.40;;;13.60;44.10;;;;;;4188265;28;20105;-36
2024/01/09 13:53:32;;;;;;;2.85;2.00;;;13.50;43.60;;;;;;4202471;28;20047;-36
2024/01/09 13:56:15;;;;;;;2.25;2.05;;;13.40;44.00;;;;;;4204042;27;20158;-36
2024/01/09 13:58:56;;;;;;;3.65;2.05;;;13.40;45.00;;;;;;4214660;27;20050;-36
2024/01/09 14:01:37;;;;;;;3.80;2.47;;;13.30;45.00;;;;;;4220030;27;20047;-36